sensor_id;sensor_type;location;lat;lon;timestamp;temperature;humidity
64833;HTU21D;51290;45.060;38.948;2023-07-08T00:00:49;25.96;57.98
64833;HTU21D;51290;45.060;38.948;2023-07-08T00:03:17;25.89;58.45
64833;HTU21D;51290;45.060;38.948;2023-07-08T00:05:45;25.74;58.68
64833;HTU21D;51290;45.060;38.948;2023-07-08T00:08:14;25.72;59.46
64833;HTU21D;51290;45.060;38.948;2023-07-08T00:10:40;25.73;59.88
64833;HTU21D;51290;45.060;38.948;2023-07-08T00:13:08;25.71;60.41
64833;HTU21D;51290;45.060;38.948;2023-07-08T00:15:35;25.59;61.66
64833;HTU21D;51290;45.060;38.948;2023-07-08T00:18:12;25.57;62.82
64833;HTU21D;51290;45.060;38.948;2023-07-08T00:20:49;25.58;63.46
64833;HTU21D;51290;45.060;38.948;2023-07-08T00:23:16;25.63;63.84
64833;HTU21D;51290;45.060;38.948;2023-07-08T00:25:42;25.65;63.82
64833;HTU21D;51290;45.060;38.948;2023-07-08T00:28:10;25.71;64.14
64833;HTU21D;51290;45.060;38.948;2023-07-08T00:30:37;25.77;64.27
64833;HTU21D;51290;45.060;38.948;2023-07-08T00:33:06;25.76;63.69
64833;HTU21D;51290;45.060;38.948;2023-07-08T00:35:36;25.68;63.77
64833;HTU21D;51290;45.060;38.948;2023-07-08T00:40:50;25.80;64.82
64833;HTU21D;51290;45.060;38.948;2023-07-08T00:43:18;25.82;64.58
64833;HTU21D;51290;45.060;38.948;2023-07-08T00:45:49;25.92;65.13
64833;HTU21D;51290;45.060;38.948;2023-07-08T00:48:34;25.99;64.47
64833;HTU21D;51290;45.060;38.948;2023-07-08T00:51:03;25.94;64.59
64833;HTU21D;51290;45.060;38.948;2023-07-08T00:53:35;25.89;64.56
64833;HTU21D;51290;45.060;38.948;2023-07-08T00:58:39;25.66;65.08
64833;HTU21D;51290;45.060;38.948;2023-07-08T01:01:07;25.64;65.23
64833;HTU21D;51290;45.060;38.948;2023-07-08T01:03:43;25.60;65.54
64833;HTU21D;51290;45.060;38.948;2023-07-08T01:06:11;25.61;66.36
64833;HTU21D;51290;45.060;38.948;2023-07-08T01:08:38;25.68;66.33
64833;HTU21D;51290;45.060;38.948;2023-07-08T01:11:05;25.77;66.40
64833;HTU21D;51290;45.060;38.948;2023-07-08T01:13:35;25.77;66.40
64833;HTU21D;51290;45.060;38.948;2023-07-08T01:16:03;25.83;66.76
64833;HTU21D;51290;45.060;38.948;2023-07-08T01:18:29;25.93;66.65
64833;HTU21D;51290;45.060;38.948;2023-07-08T01:21:01;25.94;66.50
64833;HTU21D;51290;45.060;38.948;2023-07-08T01:23:27;25.88;65.94
64833;HTU21D;51290;45.060;38.948;2023-07-08T01:25:53;25.72;65.84
64833;HTU21D;51290;45.060;38.948;2023-07-08T01:28:19;25.52;65.99
64833;HTU21D;51290;45.060;38.948;2023-07-08T01:30:48;25.31;66.23
64833;HTU21D;51290;45.060;38.948;2023-07-08T01:33:21;25.13;66.45
64833;HTU21D;51290;45.060;38.948;2023-07-08T01:35:48;24.97;66.66
64833;HTU21D;51290;45.060;38.948;2023-07-08T01:38:21;24.83;66.96
64833;HTU21D;51290;45.060;38.948;2023-07-08T01:40:54;24.71;67.20
64833;HTU21D;51290;45.060;38.948;2023-07-08T01:43:20;24.59;67.34
64833;HTU21D;51290;45.060;38.948;2023-07-08T01:45:47;24.50;67.86
64833;HTU21D;51290;45.060;38.948;2023-07-08T01:48:18;24.44;68.05
64833;HTU21D;51290;45.060;38.948;2023-07-08T01:51:00;24.36;68.25
64833;HTU21D;51290;45.060;38.948;2023-07-08T01:53:33;24.34;68.75
64833;HTU21D;51290;45.060;38.948;2023-07-08T01:55:59;24.31;68.69
64833;HTU21D;51290;45.060;38.948;2023-07-08T01:58:26;24.29;69.08
64833;HTU21D;51290;45.060;38.948;2023-07-08T02:00:54;24.31;69.23
64833;HTU21D;51290;45.060;38.948;2023-07-08T02:03:23;24.33;69.21
64833;HTU21D;51290;45.060;38.948;2023-07-08T02:05:49;24.36;69.19
64833;HTU21D;51290;45.060;38.948;2023-07-08T02:08:15;24.39;69.18
64833;HTU21D;51290;45.060;38.948;2023-07-08T02:10:44;24.41;69.31
64833;HTU21D;51290;45.060;38.948;2023-07-08T02:13:10;24.42;69.25
64833;HTU21D;51290;45.060;38.948;2023-07-08T02:15:36;24.45;69.74
64833;HTU21D;51290;45.060;38.948;2023-07-08T02:18:02;24.47;69.91
64833;HTU21D;51290;45.060;38.948;2023-07-08T02:20:28;24.48;70.21
64833;HTU21D;51290;45.060;38.948;2023-07-08T02:22:54;24.49;70.42
64833;HTU21D;51290;45.060;38.948;2023-07-08T02:25:20;24.53;70.70
64833;HTU21D;51290;45.060;38.948;2023-07-08T02:27:46;24.55;70.76
64833;HTU21D;51290;45.060;38.948;2023-07-08T02:30:12;24.57;70.85
64833;HTU21D;51290;45.060;38.948;2023-07-08T02:32:38;24.60;71.14
64833;HTU21D;51290;45.060;38.948;2023-07-08T02:35:07;24.63;71.33
64833;HTU21D;51290;45.060;38.948;2023-07-08T02:37:33;24.66;71.51
64833;HTU21D;51290;45.060;38.948;2023-07-08T02:39:59;24.72;71.68
64833;HTU21D;51290;45.060;38.948;2023-07-08T02:42:26;24.75;71.85
64833;HTU21D;51290;45.060;38.948;2023-07-08T02:44:52;24.82;71.87
64833;HTU21D;51290;45.060;38.948;2023-07-08T02:47:18;24.85;72.01
64833;HTU21D;51290;45.060;38.948;2023-07-08T02:49:44;24.90;72.26
64833;HTU21D;51290;45.060;38.948;2023-07-08T02:52:11;24.95;72.49
64833;HTU21D;51290;45.060;38.948;2023-07-08T02:54:38;25.00;72.58
64833;HTU21D;51290;45.060;38.948;2023-07-08T02:57:04;25.04;72.65
64833;HTU21D;51290;45.060;38.948;2023-07-08T02:59:30;25.08;72.67
64833;HTU21D;51290;45.060;38.948;2023-07-08T03:01:56;25.12;72.59
64833;HTU21D;51290;45.060;38.948;2023-07-08T03:04:22;25.15;72.58
64833;HTU21D;51290;45.060;38.948;2023-07-08T03:06:51;25.18;72.63
64833;HTU21D;51290;45.060;38.948;2023-07-08T03:09:17;25.19;72.47
64833;HTU21D;51290;45.060;38.948;2023-07-08T03:11:44;25.19;72.56
64833;HTU21D;51290;45.060;38.948;2023-07-08T03:14:10;25.19;72.44
64833;HTU21D;51290;45.060;38.948;2023-07-08T03:16:36;25.22;72.61
64833;HTU21D;51290;45.060;38.948;2023-07-08T03:19:02;25.32;73.45
64833;HTU21D;51290;45.060;38.948;2023-07-08T03:21:28;25.51;73.77
64833;HTU21D;51290;45.060;38.948;2023-07-08T03:23:54;25.73;73.31
64833;HTU21D;51290;45.060;38.948;2023-07-08T03:26:24;25.86;72.91
64833;HTU21D;51290;45.060;38.948;2023-07-08T03:28:52;25.91;72.49
64833;HTU21D;51290;45.060;38.948;2023-07-08T03:31:19;26.01;72.51
64833;HTU21D;51290;45.060;38.948;2023-07-08T03:33:45;26.17;72.36
64833;HTU21D;51290;45.060;38.948;2023-07-08T03:36:14;26.36;71.93
64833;HTU21D;51290;45.060;38.948;2023-07-08T03:38:56;26.54;71.28
64833;HTU21D;51290;45.060;38.948;2023-07-08T03:41:23;26.60;70.79
64833;HTU21D;51290;45.060;38.948;2023-07-08T03:43:49;26.67;70.61
64833;HTU21D;51290;45.060;38.948;2023-07-08T03:46:20;26.79;70.33
64833;HTU21D;51290;45.060;38.948;2023-07-08T03:48:47;26.87;69.87
64833;HTU21D;51290;45.060;38.948;2023-07-08T03:51:37;26.96;69.50
64833;HTU21D;51290;45.060;38.948;2023-07-08T03:54:05;27.02;69.17
64833;HTU21D;51290;45.060;38.948;2023-07-08T03:56:35;27.12;68.96
64833;HTU21D;51290;45.060;38.948;2023-07-08T03:59:01;27.20;68.56
64833;HTU21D;51290;45.060;38.948;2023-07-08T04:01:29;27.26;68.22
64833;HTU21D;51290;45.060;38.948;2023-07-08T04:03:57;27.28;67.97
64833;HTU21D;51290;45.060;38.948;2023-07-08T04:06:24;27.28;67.83
64833;HTU21D;51290;45.060;38.948;2023-07-08T04:08:51;27.34;67.73
64833;HTU21D;51290;45.060;38.948;2023-07-08T04:11:22;27.38;67.37
64833;HTU21D;51290;45.060;38.948;2023-07-08T04:13:49;27.31;66.97
64833;HTU21D;51290;45.060;38.948;2023-07-08T04:16:19;27.23;66.97
64833;HTU21D;51290;45.060;38.948;2023-07-08T04:18:46;27.11;66.93
64833;HTU21D;51290;45.060;38.948;2023-07-08T04:21:12;26.96;67.13
64833;HTU21D;51290;45.060;38.948;2023-07-08T04:23:38;26.92;67.66
64833;HTU21D;51290;45.060;38.948;2023-07-08T04:26:04;26.99;67.83
64833;HTU21D;51290;45.060;38.948;2023-07-08T04:28:30;27.14;67.68
64833;HTU21D;51290;45.060;38.948;2023-07-08T04:30:56;27.28;67.36
64833;HTU21D;51290;45.060;38.948;2023-07-08T04:33:22;27.36;66.83
64833;HTU21D;51290;45.060;38.948;2023-07-08T04:35:48;27.40;66.75
64833;HTU21D;51290;45.060;38.948;2023-07-08T04:38:18;27.49;66.67
64833;HTU21D;51290;45.060;38.948;2023-07-08T04:40:50;27.56;66.43
64833;HTU21D;51290;45.060;38.948;2023-07-08T04:43:17;27.58;66.24
64833;HTU21D;51290;45.060;38.948;2023-07-08T04:45:47;27.63;66.17
64833;HTU21D;51290;45.060;38.948;2023-07-08T04:48:15;27.57;65.74
64833;HTU21D;51290;45.060;38.948;2023-07-08T04:50:42;27.56;65.98
64833;HTU21D;51290;45.060;38.948;2023-07-08T04:53:10;27.57;66.07
64833;HTU21D;51290;45.060;38.948;2023-07-08T04:55:39;27.64;65.78
64833;HTU21D;51290;45.060;38.948;2023-07-08T04:58:05;27.72;65.75
64833;HTU21D;51290;45.060;38.948;2023-07-08T05:00:32;27.80;65.63
64833;HTU21D;51290;45.060;38.948;2023-07-08T05:02:58;27.82;65.17
64833;HTU21D;51290;45.060;38.948;2023-07-08T05:05:24;27.79;65.04
64833;HTU21D;51290;45.060;38.948;2023-07-08T05:07:50;27.68;64.90
64833;HTU21D;51290;45.060;38.948;2023-07-08T05:10:17;27.55;64.90
64833;HTU21D;51290;45.060;38.948;2023-07-08T05:12:43;27.41;65.02
64833;HTU21D;51290;45.060;38.948;2023-07-08T05:15:10;27.26;65.25
64833;HTU21D;51290;45.060;38.948;2023-07-08T05:17:37;27.14;65.46
64833;HTU21D;51290;45.060;38.948;2023-07-08T05:20:06;27.08;65.99
64833;HTU21D;51290;45.060;38.948;2023-07-08T05:22:34;27.14;66.11
64833;HTU21D;51290;45.060;38.948;2023-07-08T05:25:00;27.17;65.93
64833;HTU21D;51290;45.060;38.948;2023-07-08T05:27:27;27.22;66.09
64833;HTU21D;51290;45.060;38.948;2023-07-08T05:29:53;27.35;65.92
64833;HTU21D;51290;45.060;38.948;2023-07-08T05:32:19;27.40;65.56
64833;HTU21D;51290;45.060;38.948;2023-07-08T05:34:46;27.49;65.33
64833;HTU21D;51290;45.060;38.948;2023-07-08T05:37:13;27.46;64.98
64833;HTU21D;51290;45.060;38.948;2023-07-08T05:39:40;27.43;64.95
64833;HTU21D;51290;45.060;38.948;2023-07-08T05:42:06;27.40;64.94
64833;HTU21D;51290;45.060;38.948;2023-07-08T05:44:32;27.40;65.08
64833;HTU21D;51290;45.060;38.948;2023-07-08T05:46:58;27.45;65.24
64833;HTU21D;51290;45.060;38.948;2023-07-08T05:49:24;27.65;65.21
64833;HTU21D;51290;45.060;38.948;2023-07-08T05:51:50;27.90;64.96
64833;HTU21D;51290;45.060;38.948;2023-07-08T05:54:17;28.15;64.42
64833;HTU21D;51290;45.060;38.948;2023-07-08T05:56:43;28.35;63.95
64833;HTU21D;51290;45.060;38.948;2023-07-08T05:59:09;28.53;63.36
64833;HTU21D;51290;45.060;38.948;2023-07-08T06:01:35;28.58;62.57
64833;HTU21D;51290;45.060;38.948;2023-07-08T06:04:01;28.54;62.30
64833;HTU21D;51290;45.060;38.948;2023-07-08T06:06:28;28.47;62.29
64833;HTU21D;51290;45.060;38.948;2023-07-08T06:08:54;28.52;62.28
64833;HTU21D;51290;45.060;38.948;2023-07-08T06:11:20;28.49;62.08
64833;HTU21D;51290;45.060;38.948;2023-07-08T06:13:47;28.45;61.90
64833;HTU21D;51290;45.060;38.948;2023-07-08T06:16:14;28.35;61.81
64833;HTU21D;51290;45.060;38.948;2023-07-08T06:18:40;28.27;61.79
64833;HTU21D;51290;45.060;38.948;2023-07-08T06:21:06;28.18;61.76
64833;HTU21D;51290;45.060;38.948;2023-07-08T06:23:32;28.11;61.74
64833;HTU21D;51290;45.060;38.948;2023-07-08T06:25:58;28.05;61.75
64833;HTU21D;51290;45.060;38.948;2023-07-08T06:28:24;28.05;61.73
64833;HTU21D;51290;45.060;38.948;2023-07-08T06:30:50;28.09;61.64
64833;HTU21D;51290;45.060;38.948;2023-07-08T06:33:16;28.17;61.59
64833;HTU21D;51290;45.060;38.948;2023-07-08T06:35:43;28.32;61.38
64833;HTU21D;51290;45.060;38.948;2023-07-08T06:38:09;28.45;61.08
64833;HTU21D;51290;45.060;38.948;2023-07-08T06:40:35;28.64;60.84
64833;HTU21D;51290;45.060;38.948;2023-07-08T06:43:04;28.87;60.52
64833;HTU21D;51290;45.060;38.948;2023-07-08T06:45:40;29.08;60.14
64833;HTU21D;51290;45.060;38.948;2023-07-08T06:48:06;29.33;59.75
64833;HTU21D;51290;45.060;38.948;2023-07-08T06:50:32;29.54;59.16
64833;HTU21D;51290;45.060;38.948;2023-07-08T06:52:59;29.72;58.77
64833;HTU21D;51290;45.060;38.948;2023-07-08T06:55:27;29.83;58.45
64833;HTU21D;51290;45.060;38.948;2023-07-08T06:57:54;29.95;58.19
64833;HTU21D;51290;45.060;38.948;2023-07-08T07:00:20;30.07;57.90
64833;HTU21D;51290;45.060;38.948;2023-07-08T07:02:46;30.15;57.68
64833;HTU21D;51290;45.060;38.948;2023-07-08T07:05:12;30.23;57.46
64833;HTU21D;51290;45.060;38.948;2023-07-08T07:07:38;30.28;57.37
64833;HTU21D;51290;45.060;38.948;2023-07-08T07:10:05;30.35;57.23
64833;HTU21D;51290;45.060;38.948;2023-07-08T07:12:33;30.47;57.10
64833;HTU21D;51290;45.060;38.948;2023-07-08T07:15:00;30.57;56.88
64833;HTU21D;51290;45.060;38.948;2023-07-08T07:17:26;30.66;56.58
64833;HTU21D;51290;45.060;38.948;2023-07-08T07:19:55;30.67;56.02
64833;HTU21D;51290;45.060;38.948;2023-07-08T07:22:22;30.60;55.97
64833;HTU21D;51290;45.060;38.948;2023-07-08T07:24:48;30.53;55.73
64833;HTU21D;51290;45.060;38.948;2023-07-08T07:27:15;30.40;55.57
64833;HTU21D;51290;45.060;38.948;2023-07-08T07:29:47;30.30;55.81
64833;HTU21D;51290;45.060;38.948;2023-07-08T07:32:15;30.20;55.84
64833;HTU21D;51290;45.060;38.948;2023-07-08T07:34:42;30.15;55.97
64833;HTU21D;51290;45.060;38.948;2023-07-08T07:37:15;30.08;56.05
64833;HTU21D;51290;45.060;38.948;2023-07-08T07:39:42;30.05;55.81
64833;HTU21D;51290;45.060;38.948;2023-07-08T07:42:09;29.95;55.45
64833;HTU21D;51290;45.060;38.948;2023-07-08T07:44:35;29.82;55.22
64833;HTU21D;51290;45.060;38.948;2023-07-08T07:47:02;29.67;54.91
64833;HTU21D;51290;45.060;38.948;2023-07-08T07:49:29;29.57;55.03
64833;HTU21D;51290;45.060;38.948;2023-07-08T07:51:55;29.45;55.08
64833;HTU21D;51290;45.060;38.948;2023-07-08T07:54:21;29.39;55.27
64833;HTU21D;51290;45.060;38.948;2023-07-08T07:56:47;29.38;55.22
64833;HTU21D;51290;45.060;38.948;2023-07-08T07:59:13;29.39;55.20
64833;HTU21D;51290;45.060;38.948;2023-07-08T08:01:39;29.47;55.17
64833;HTU21D;51290;45.060;38.948;2023-07-08T08:04:07;29.54;55.19
64833;HTU21D;51290;45.060;38.948;2023-07-08T08:06:34;29.63;55.02
64833;HTU21D;51290;45.060;38.948;2023-07-08T08:09:00;29.73;54.85
64833;HTU21D;51290;45.060;38.948;2023-07-08T08:11:28;29.85;54.62
64833;HTU21D;51290;45.060;38.948;2023-07-08T08:13:55;29.98;54.28
64833;HTU21D;51290;45.060;38.948;2023-07-08T08:16:21;30.05;54.08
64833;HTU21D;51290;45.060;38.948;2023-07-08T08:18:47;30.13;53.79
64833;HTU21D;51290;45.060;38.948;2023-07-08T08:21:13;30.21;53.81
64833;HTU21D;51290;45.060;38.948;2023-07-08T08:23:40;30.31;53.73
64833;HTU21D;51290;45.060;38.948;2023-07-08T08:26:06;30.35;53.15
64833;HTU21D;51290;45.060;38.948;2023-07-08T08:28:32;30.30;52.97
64833;HTU21D;51290;45.060;38.948;2023-07-08T08:30:58;30.25;53.05
64833;HTU21D;51290;45.060;38.948;2023-07-08T08:33:24;30.26;52.95
64833;HTU21D;51290;45.060;38.948;2023-07-08T08:35:50;30.25;52.62
64833;HTU21D;51290;45.060;38.948;2023-07-08T08:38:16;30.24;52.69
64833;HTU21D;51290;45.060;38.948;2023-07-08T08:40:43;30.30;52.69
64833;HTU21D;51290;45.060;38.948;2023-07-08T08:43:13;30.35;52.56
64833;HTU21D;51290;45.060;38.948;2023-07-08T08:48:18;30.38;52.17
64833;HTU21D;51290;45.060;38.948;2023-07-08T08:51:13;30.36;52.24
64833;HTU21D;51290;45.060;38.948;2023-07-08T08:53:40;30.33;52.11
64833;HTU21D;51290;45.060;38.948;2023-07-08T08:56:39;30.30;52.20
64833;HTU21D;51290;45.060;38.948;2023-07-08T08:59:42;30.27;52.38
64833;HTU21D;51290;45.060;38.948;2023-07-08T09:05:06;30.36;52.47
64833;HTU21D;51290;45.060;38.948;2023-07-08T09:10:23;30.48;52.49
64833;HTU21D;51290;45.060;38.948;2023-07-08T09:12:51;30.45;52.39
64833;HTU21D;51290;45.060;38.948;2023-07-08T09:15:19;30.42;52.56
64833;HTU21D;51290;45.060;38.948;2023-07-08T09:17:46;30.44;52.70
64833;HTU21D;51290;45.060;38.948;2023-07-08T09:20:16;30.44;52.72
64833;HTU21D;51290;45.060;38.948;2023-07-08T09:22:57;30.47;52.74
64833;HTU21D;51290;45.060;38.948;2023-07-08T09:27:54;30.56;52.76
64833;HTU21D;51290;45.060;38.948;2023-07-08T09:30:22;30.65;52.62
64833;HTU21D;51290;45.060;38.948;2023-07-08T09:32:49;30.76;52.56
64833;HTU21D;51290;45.060;38.948;2023-07-08T09:37:49;31.07;52.10
64833;HTU21D;51290;45.060;38.948;2023-07-08T09:40:32;31.15;51.82
64833;HTU21D;51290;45.060;38.948;2023-07-08T09:43:23;31.18;51.54
64833;HTU21D;51290;45.060;38.948;2023-07-08T09:45:50;31.21;51.64
64833;HTU21D;51290;45.060;38.948;2023-07-08T09:48:23;31.27;51.62
64833;HTU21D;51290;45.060;38.948;2023-07-08T09:50:52;31.43;51.62
64833;HTU21D;51290;45.060;38.948;2023-07-08T09:53:19;31.53;51.43
64833;HTU21D;51290;45.060;38.948;2023-07-08T09:55:45;31.61;51.24
64833;HTU21D;51290;45.060;38.948;2023-07-08T10:00:55;31.86;51.03
64833;HTU21D;51290;45.060;38.948;2023-07-08T10:03:26;31.94;50.77
64833;HTU21D;51290;45.060;38.948;2023-07-08T10:05:55;31.98;50.52
64833;HTU21D;51290;45.060;38.948;2023-07-08T10:08:25;32.02;50.34
64833;HTU21D;51290;45.060;38.948;2023-07-08T10:14:01;32.02;50.04
64833;HTU21D;51290;45.060;38.948;2023-07-08T10:16:31;32.00;50.02
64833;HTU21D;51290;45.060;38.948;2023-07-08T10:19:00;31.95;49.78
64833;HTU21D;51290;45.060;38.948;2023-07-08T10:24:37;31.95;49.98
64833;HTU21D;51290;45.060;38.948;2023-07-08T10:38:09;32.04;49.18
64833;HTU21D;51290;45.060;38.948;2023-07-08T10:52:55;30.83;48.55
64833;HTU21D;51290;45.060;38.948;2023-07-08T11:01:25;28.14;50.91
64833;HTU21D;51290;45.060;38.948;2023-07-08T11:09:52;26.51;53.18
64833;HTU21D;51290;45.060;38.948;2023-07-08T11:12:34;26.21;53.72
64833;HTU21D;51290;45.060;38.948;2023-07-08T11:17:55;25.88;54.24
64833;HTU21D;51290;45.060;38.948;2023-07-08T11:20:36;25.76;54.49
64833;HTU21D;51290;45.060;38.948;2023-07-08T11:23:22;25.48;54.82
64833;HTU21D;51290;45.060;38.948;2023-07-08T11:25:51;24.44;55.84
64833;HTU21D;51290;45.060;38.948;2023-07-08T11:28:21;23.50;58.85
64833;HTU21D;51290;45.060;38.948;2023-07-08T11:30:51;22.76;60.84
64833;HTU21D;51290;45.060;38.948;2023-07-08T11:33:21;22.23;62.33
64833;HTU21D;51290;45.060;38.948;2023-07-08T11:35:52;21.85;64.01
64833;HTU21D;51290;45.060;38.948;2023-07-08T11:38:21;21.58;64.82
64833;HTU21D;51290;45.060;38.948;2023-07-08T11:43:21;21.16;66.24
64833;HTU21D;51290;45.060;38.948;2023-07-08T11:45:49;20.94;67.35
64833;HTU21D;51290;45.060;38.948;2023-07-08T11:48:21;20.75;68.22
64833;HTU21D;51290;45.060;38.948;2023-07-08T11:50:49;20.58;69.46
64833;HTU21D;51290;45.060;38.948;2023-07-08T11:56:00;20.13;71.74
64833;HTU21D;51290;45.060;38.948;2023-07-08T11:58:29;19.75;73.32
64833;HTU21D;51290;45.060;38.948;2023-07-08T12:01:04;19.41;75.33
64833;HTU21D;51290;45.060;38.948;2023-07-08T12:03:54;19.11;78.00
64833;HTU21D;51290;45.060;38.948;2023-07-08T12:08:58;18.84;79.33
64833;HTU21D;51290;45.060;38.948;2023-07-08T12:11:47;18.74;81.07
64833;HTU21D;51290;45.060;38.948;2023-07-08T12:14:14;18.71;80.99
64833;HTU21D;51290;45.060;38.948;2023-07-08T12:16:45;18.68;81.35
64833;HTU21D;51290;45.060;38.948;2023-07-08T12:19:16;18.64;81.91
64833;HTU21D;51290;45.060;38.948;2023-07-08T12:21:43;18.63;82.17
64833;HTU21D;51290;45.060;38.948;2023-07-08T12:24:13;18.61;82.65
64833;HTU21D;51290;45.060;38.948;2023-07-08T12:26:41;18.62;82.97
64833;HTU21D;51290;45.060;38.948;2023-07-08T12:29:13;18.64;83.26
64833;HTU21D;51290;45.060;38.948;2023-07-08T12:31:41;18.67;83.43
64833;HTU21D;51290;45.060;38.948;2023-07-08T12:34:13;18.74;83.87
64833;HTU21D;51290;45.060;38.948;2023-07-08T12:36:42;18.85;84.00
64833;HTU21D;51290;45.060;38.948;2023-07-08T12:39:11;18.96;84.23
64833;HTU21D;51290;45.060;38.948;2023-07-08T12:41:41;19.09;84.47
64833;HTU21D;51290;45.060;38.948;2023-07-08T12:46:44;19.36;84.65
64833;HTU21D;51290;45.060;38.948;2023-07-08T12:49:13;19.47;84.75
64833;HTU21D;51290;45.060;38.948;2023-07-08T12:51:42;19.56;84.83
64833;HTU21D;51290;45.060;38.948;2023-07-08T12:54:09;19.67;84.97
64833;HTU21D;51290;45.060;38.948;2023-07-08T12:56:36;19.77;85.13
64833;HTU21D;51290;45.060;38.948;2023-07-08T12:59:04;19.88;85.21
64833;HTU21D;51290;45.060;38.948;2023-07-08T13:01:32;19.98;85.32
64833;HTU21D;51290;45.060;38.948;2023-07-08T13:04:05;20.10;85.57
64833;HTU21D;51290;45.060;38.948;2023-07-08T13:06:34;20.21;85.56
64833;HTU21D;51290;45.060;38.948;2023-07-08T13:11:54;20.48;85.84
64833;HTU21D;51290;45.060;38.948;2023-07-08T13:14:22;20.65;85.98
64833;HTU21D;51290;45.060;38.948;2023-07-08T13:16:49;20.87;86.12
64833;HTU21D;51290;45.060;38.948;2023-07-08T13:19:16;21.10;86.03
64833;HTU21D;51290;45.060;38.948;2023-07-08T13:21:42;21.34;85.99
64833;HTU21D;51290;45.060;38.948;2023-07-08T13:24:10;21.61;85.98
64833;HTU21D;51290;45.060;38.948;2023-07-08T13:26:37;21.91;86.00
64833;HTU21D;51290;45.060;38.948;2023-07-08T13:29:17;22.21;85.95
64833;HTU21D;51290;45.060;38.948;2023-07-08T13:31:55;22.44;85.58
64833;HTU21D;51290;45.060;38.948;2023-07-08T13:34:25;22.60;85.35
64833;HTU21D;51290;45.060;38.948;2023-07-08T13:36:51;22.76;85.46
64833;HTU21D;51290;45.060;38.948;2023-07-08T13:39:31;22.92;85.80
64833;HTU21D;51290;45.060;38.948;2023-07-08T13:41:59;23.07;85.48
64833;HTU21D;51290;45.060;38.948;2023-07-08T13:44:26;23.18;85.48
64833;HTU21D;51290;45.060;38.948;2023-07-08T13:46:55;23.25;85.53
64833;HTU21D;51290;45.060;38.948;2023-07-08T13:49:38;23.30;85.76
64833;HTU21D;51290;45.060;38.948;2023-07-08T13:52:16;23.37;85.89
64833;HTU21D;51290;45.060;38.948;2023-07-08T13:54:53;23.40;85.86
64833;HTU21D;51290;45.060;38.948;2023-07-08T13:57:28;23.40;85.45
64833;HTU21D;51290;45.060;38.948;2023-07-08T13:59:54;23.38;86.29
64833;HTU21D;51290;45.060;38.948;2023-07-08T14:02:27;23.31;85.45
64833;HTU21D;51290;45.060;38.948;2023-07-08T14:04:54;23.30;85.32
64833;HTU21D;51290;45.060;38.948;2023-07-08T14:07:26;23.28;85.15
64833;HTU21D;51290;45.060;38.948;2023-07-08T14:09:53;23.28;85.06
64833;HTU21D;51290;45.060;38.948;2023-07-08T14:12:20;23.26;84.91
64833;HTU21D;51290;45.060;38.948;2023-07-08T14:14:47;23.27;84.93
64833;HTU21D;51290;45.060;38.948;2023-07-08T14:17:19;23.31;84.87
64833;HTU21D;51290;45.060;38.948;2023-07-08T14:19:46;23.32;84.72
64833;HTU21D;51290;45.060;38.948;2023-07-08T14:22:19;23.37;84.70
64833;HTU21D;51290;45.060;38.948;2023-07-08T14:24:45;23.40;84.74
64833;HTU21D;51290;45.060;38.948;2023-07-08T14:27:11;23.46;84.80
64833;HTU21D;51290;45.060;38.948;2023-07-08T14:29:46;23.51;84.78
64833;HTU21D;51290;45.060;38.948;2023-07-08T14:32:14;23.59;84.64
64833;HTU21D;51290;45.060;38.948;2023-07-08T14:34:42;23.69;84.57
64833;HTU21D;51290;45.060;38.948;2023-07-08T14:37:15;23.80;84.54
64833;HTU21D;51290;45.060;38.948;2023-07-08T14:39:45;23.88;84.44
64833;HTU21D;51290;45.060;38.948;2023-07-08T14:42:13;24.00;84.49
64833;HTU21D;51290;45.060;38.948;2023-07-08T14:44:41;24.12;84.46
64833;HTU21D;51290;45.060;38.948;2023-07-08T14:47:14;24.24;84.46
64833;HTU21D;51290;45.060;38.948;2023-07-08T14:49:41;24.33;84.43
64833;HTU21D;51290;45.060;38.948;2023-07-08T14:52:07;24.42;84.34
64833;HTU21D;51290;45.060;38.948;2023-07-08T14:54:34;24.48;84.23
64833;HTU21D;51290;45.060;38.948;2023-07-08T14:57:01;24.56;84.35
64833;HTU21D;51290;45.060;38.948;2023-07-08T14:59:31;24.64;84.31
64833;HTU21D;51290;45.060;38.948;2023-07-08T15:01:58;24.74;84.31
64833;HTU21D;51290;45.060;38.948;2023-07-08T15:04:25;24.84;84.35
64833;HTU21D;51290;45.060;38.948;2023-07-08T15:06:52;24.91;84.23
64833;HTU21D;51290;45.060;38.948;2023-07-08T15:09:19;24.94;84.10
64833;HTU21D;51290;45.060;38.948;2023-07-08T15:11:46;24.95;83.92
64833;HTU21D;51290;45.060;38.948;2023-07-08T15:14:22;24.94;84.03
64833;HTU21D;51290;45.060;38.948;2023-07-08T15:16:51;24.95;83.97
64833;HTU21D;51290;45.060;38.948;2023-07-08T15:19:19;24.95;84.13
64833;HTU21D;51290;45.060;38.948;2023-07-08T15:21:46;24.99;84.26
64833;HTU21D;51290;45.060;38.948;2023-07-08T15:24:13;25.00;84.21
64833;HTU21D;51290;45.060;38.948;2023-07-08T15:26:42;25.02;84.27
64833;HTU21D;51290;45.060;38.948;2023-07-08T15:29:18;25.03;84.36
64833;HTU21D;51290;45.060;38.948;2023-07-08T15:31:44;25.06;84.33
64833;HTU21D;51290;45.060;38.948;2023-07-08T15:34:16;25.07;84.16
64833;HTU21D;51290;45.060;38.948;2023-07-08T15:36:42;25.06;84.23
64833;HTU21D;51290;45.060;38.948;2023-07-08T15:39:08;25.06;84.30
64833;HTU21D;51290;45.060;38.948;2023-07-08T15:41:35;25.06;84.34
64833;HTU21D;51290;45.060;38.948;2023-07-08T15:44:04;25.03;84.48
64833;HTU21D;51290;45.060;38.948;2023-07-08T15:46:37;25.03;84.57
64833;HTU21D;51290;45.060;38.948;2023-07-08T15:49:16;25.03;84.70
64833;HTU21D;51290;45.060;38.948;2023-07-08T15:51:43;25.05;84.60
64833;HTU21D;51290;45.060;38.948;2023-07-08T15:54:11;25.06;84.56
64833;HTU21D;51290;45.060;38.948;2023-07-08T15:56:38;25.06;84.55
64833;HTU21D;51290;45.060;38.948;2023-07-08T15:59:05;25.05;84.52
64833;HTU21D;51290;45.060;38.948;2023-07-08T16:01:35;25.04;84.60
64833;HTU21D;51290;45.060;38.948;2023-07-08T16:04:02;25.03;84.70
64833;HTU21D;51290;45.060;38.948;2023-07-08T16:06:28;25.04;84.75
64833;HTU21D;51290;45.060;38.948;2023-07-08T16:08:54;25.06;84.74
64833;HTU21D;51290;45.060;38.948;2023-07-08T16:11:27;25.07;84.64
64833;HTU21D;51290;45.060;38.948;2023-07-08T16:13:54;25.07;84.68
64833;HTU21D;51290;45.060;38.948;2023-07-08T16:16:21;25.07;84.61
64833;HTU21D;51290;45.060;38.948;2023-07-08T16:18:47;25.06;84.64
64833;HTU21D;51290;45.060;38.948;2023-07-08T16:21:13;25.03;84.68
64833;HTU21D;51290;45.060;38.948;2023-07-08T16:23:39;24.99;84.79
64833;HTU21D;51290;45.060;38.948;2023-07-08T16:26:05;24.94;84.87
64833;HTU21D;51290;45.060;38.948;2023-07-08T16:31:20;24.86;85.05
64833;HTU21D;51290;45.060;38.948;2023-07-08T16:33:48;24.83;85.19